sensor_id;sensor_type;location;lat;lon;timestamp;P1;durP1;ratioP1;P2;durP2;ratioP2
10059;SDS011;5069;49.306;8.636;2023-01-08T00:01:18;7.77;;;6.07;;
10059;SDS011;5069;49.306;8.636;2023-01-08T00:04:19;8.27;;;6.60;;
10059;SDS011;5069;49.306;8.636;2023-01-08T00:07:21;8.17;;;6.73;;
10059;SDS011;5069;49.306;8.636;2023-01-08T00:10:22;7.93;;;5.97;;
10059;SDS011;5069;49.306;8.636;2023-01-08T00:13:24;7.07;;;6.03;;
10059;SDS011;5069;49.306;8.636;2023-01-08T00:16:26;7.67;;;6.00;;
10059;SDS011;5069;49.306;8.636;2023-01-08T00:19:27;9.23;;;7.60;;
10059;SDS011;5069;49.306;8.636;2023-01-08T00:22:29;10.33;;;7.93;;
10059;SDS011;5069;49.306;8.636;2023-01-08T00:25:31;9.47;;;7.13;;
10059;SDS011;5069;49.306;8.636;2023-01-08T00:28:33;9.10;;;6.70;;
10059;SDS011;5069;49.306;8.636;2023-01-08T00:31:35;10.43;;;7.97;;
10059;SDS011;5069;49.306;8.636;2023-01-08T00:34:36;9.83;;;8.07;;
10059;SDS011;5069;49.306;8.636;2023-01-08T00:37:38;9.43;;;7.33;;
10059;SDS011;5069;49.306;8.636;2023-01-08T00:40:39;9.67;;;7.47;;
10059;SDS011;5069;49.306;8.636;2023-01-08T00:43:41;8.90;;;6.50;;
10059;SDS011;5069;49.306;8.636;2023-01-08T00:46:42;10.13;;;6.93;;
10059;SDS011;5069;49.306;8.636;2023-01-08T00:49:43;10.03;;;6.97;;
10059;SDS011;5069;49.306;8.636;2023-01-08T00:52:45;6.63;;;6.03;;
10059;SDS011;5069;49.306;8.636;2023-01-08T00:55:46;8.37;;;7.17;;
10059;SDS011;5069;49.306;8.636;2023-01-08T00:58:48;8.70;;;7.10;;
10059;SDS011;5069;49.306;8.636;2023-01-08T01:01:49;7.67;;;6.67;;
10059;SDS011;5069;49.306;8.636;2023-01-08T01:04:53;9.20;;;7.60;;
10059;SDS011;5069;49.306;8.636;2023-01-08T01:07:54;9.43;;;7.07;;
10059;SDS011;5069;49.306;8.636;2023-01-08T01:10:57;7.93;;;6.60;;
10059;SDS011;5069;49.306;8.636;2023-01-08T01:13:58;8.67;;;7.00;;
10059;SDS011;5069;49.306;8.636;2023-01-08T01:17:00;7.57;;;6.00;;
10059;SDS011;5069;49.306;8.636;2023-01-08T01:20:02;6.97;;;6.23;;
10059;SDS011;5069;49.306;8.636;2023-01-08T01:23:04;8.63;;;6.30;;
10059;SDS011;5069;49.306;8.636;2023-01-08T01:26:12;8.47;;;5.80;;
10059;SDS011;5069;49.306;8.636;2023-01-08T01:29:15;7.33;;;5.97;;
10059;SDS011;5069;49.306;8.636;2023-01-08T01:32:17;7.50;;;6.00;;
10059;SDS011;5069;49.306;8.636;2023-01-08T01:35:19;8.73;;;6.70;;
10059;SDS011;5069;49.306;8.636;2023-01-08T01:38:20;6.73;;;6.03;;
10059;SDS011;5069;49.306;8.636;2023-01-08T01:47:41;7.53;;;6.17;;
10059;SDS011;5069;49.306;8.636;2023-01-08T01:50:53;7.13;;;5.90;;
10059;SDS011;5069;49.306;8.636;2023-01-08T01:53:55;7.30;;;5.73;;
10059;SDS011;5069;49.306;8.636;2023-01-08T01:56:56;6.97;;;5.67;;
10059;SDS011;5069;49.306;8.636;2023-01-08T02:00:00;7.67;;;5.73;;
10059;SDS011;5069;49.306;8.636;2023-01-08T02:03:12;6.27;;;5.53;;
10059;SDS011;5069;49.306;8.636;2023-01-08T02:06:18;7.20;;;5.63;;
10059;SDS011;5069;49.306;8.636;2023-01-08T02:09:37;6.53;;;5.53;;
10059;SDS011;5069;49.306;8.636;2023-01-08T02:13:18;6.50;;;5.80;;
10059;SDS011;5069;49.306;8.636;2023-01-08T02:16:44;6.80;;;5.93;;
10059;SDS011;5069;49.306;8.636;2023-01-08T02:19:56;9.80;;;6.50;;
10059;SDS011;5069;49.306;8.636;2023-01-08T02:26:41;7.90;;;5.73;;
10059;SDS011;5069;49.306;8.636;2023-01-08T02:29:46;7.90;;;5.80;;
10059;SDS011;5069;49.306;8.636;2023-01-08T02:32:48;6.93;;;6.10;;
10059;SDS011;5069;49.306;8.636;2023-01-08T02:42:54;7.03;;;5.83;;
10059;SDS011;5069;49.306;8.636;2023-01-08T02:46:01;7.17;;;6.10;;
10059;SDS011;5069;49.306;8.636;2023-01-08T02:49:05;8.23;;;6.63;;
10059;SDS011;5069;49.306;8.636;2023-01-08T02:52:10;8.03;;;6.17;;
10059;SDS011;5069;49.306;8.636;2023-01-08T02:55:13;8.13;;;5.97;;
10059;SDS011;5069;49.306;8.636;2023-01-08T02:58:16;6.47;;;5.70;;
10059;SDS011;5069;49.306;8.636;2023-01-08T03:01:19;6.67;;;5.77;;
10059;SDS011;5069;49.306;8.636;2023-01-08T03:04:22;7.07;;;6.00;;
10059;SDS011;5069;49.306;8.636;2023-01-08T03:07:26;7.20;;;5.80;;
10059;SDS011;5069;49.306;8.636;2023-01-08T03:10:27;7.17;;;5.60;;
10059;SDS011;5069;49.306;8.636;2023-01-08T03:13:34;6.53;;;5.73;;
10059;SDS011;5069;49.306;8.636;2023-01-08T03:16:43;7.27;;;6.00;;
10059;SDS011;5069;49.306;8.636;2023-01-08T03:19:53;8.17;;;6.20;;
10059;SDS011;5069;49.306;8.636;2023-01-08T03:22:57;8.03;;;6.00;;
10059;SDS011;5069;49.306;8.636;2023-01-08T03:26:02;5.97;;;5.37;;
10059;SDS011;5069;49.306;8.636;2023-01-08T03:29:05;7.10;;;5.67;;
10059;SDS011;5069;49.306;8.636;2023-01-08T03:32:13;7.10;;;5.73;;
10059;SDS011;5069;49.306;8.636;2023-01-08T03:35:19;7.47;;;5.90;;
10059;SDS011;5069;49.306;8.636;2023-01-08T03:38:24;6.27;;;5.20;;
10059;SDS011;5069;49.306;8.636;2023-01-08T03:41:30;5.87;;;5.00;;
10059;SDS011;5069;49.306;8.636;2023-01-08T03:44:33;6.23;;;5.63;;
10059;SDS011;5069;49.306;8.636;2023-01-08T03:47:35;5.03;;;4.50;;
10059;SDS011;5069;49.306;8.636;2023-01-08T03:50:39;5.57;;;4.80;;
10059;SDS011;5069;49.306;8.636;2023-01-08T03:53:41;6.43;;;5.30;;
10059;SDS011;5069;49.306;8.636;2023-01-08T03:56:43;6.50;;;5.50;;
10059;SDS011;5069;49.306;8.636;2023-01-08T03:59:44;6.53;;;5.23;;
10059;SDS011;5069;49.306;8.636;2023-01-08T04:02:46;6.63;;;5.47;;
10059;SDS011;5069;49.306;8.636;2023-01-08T04:05:48;7.70;;;5.57;;
10059;SDS011;5069;49.306;8.636;2023-01-08T04:08:49;7.03;;;5.87;;
10059;SDS011;5069;49.306;8.636;2023-01-08T04:11:50;6.60;;;5.63;;
10059;SDS011;5069;49.306;8.636;2023-01-08T04:14:52;6.57;;;5.33;;
10059;SDS011;5069;49.306;8.636;2023-01-08T04:17:53;7.20;;;6.00;;
10059;SDS011;5069;49.306;8.636;2023-01-08T04:20:55;7.47;;;5.73;;
10059;SDS011;5069;49.306;8.636;2023-01-08T04:23:56;6.70;;;6.00;;
10059;SDS011;5069;49.306;8.636;2023-01-08T04:26:58;7.37;;;5.53;;
10059;SDS011;5069;49.306;8.636;2023-01-08T04:29:59;8.30;;;6.30;;
10059;SDS011;5069;49.306;8.636;2023-01-08T04:33:00;6.17;;;5.50;;
10059;SDS011;5069;49.306;8.636;2023-01-08T04:36:02;7.27;;;6.00;;
10059;SDS011;5069;49.306;8.636;2023-01-08T04:39:06;8.73;;;6.03;;
10059;SDS011;5069;49.306;8.636;2023-01-08T04:42:07;6.83;;;5.90;;
10059;SDS011;5069;49.306;8.636;2023-01-08T04:45:09;6.33;;;5.60;;
10059;SDS011;5069;49.306;8.636;2023-01-08T04:48:10;7.80;;;6.40;;
10059;SDS011;5069;49.306;8.636;2023-01-08T04:51:12;6.20;;;5.60;;
10059;SDS011;5069;49.306;8.636;2023-01-08T04:54:13;7.90;;;6.00;;
10059;SDS011;5069;49.306;8.636;2023-01-08T04:57:15;6.70;;;5.80;;
10059;SDS011;5069;49.306;8.636;2023-01-08T05:00:16;7.37;;;6.03;;
10059;SDS011;5069;49.306;8.636;2023-01-08T05:03:18;9.03;;;6.30;;
10059;SDS011;5069;49.306;8.636;2023-01-08T05:06:19;8.07;;;6.03;;
10059;SDS011;5069;49.306;8.636;2023-01-08T05:09:21;6.70;;;6.00;;
10059;SDS011;5069;49.306;8.636;2023-01-08T05:12:22;8.20;;;6.13;;
10059;SDS011;5069;49.306;8.636;2023-01-08T05:15:24;7.93;;;6.60;;
10059;SDS011;5069;49.306;8.636;2023-01-08T05:18:26;8.17;;;6.97;;
10059;SDS011;5069;49.306;8.636;2023-01-08T05:21:28;8.37;;;6.37;;
10059;SDS011;5069;49.306;8.636;2023-01-08T05:24:30;7.33;;;6.50;;
10059;SDS011;5069;49.306;8.636;2023-01-08T05:27:31;7.10;;;5.90;;
10059;SDS011;5069;49.306;8.636;2023-01-08T05:30:33;6.70;;;5.90;;
10059;SDS011;5069;49.306;8.636;2023-01-08T05:33:34;7.03;;;6.20;;
10059;SDS011;5069;49.306;8.636;2023-01-08T05:36:36;7.50;;;5.87;;
10059;SDS011;5069;49.306;8.636;2023-01-08T05:39:37;7.43;;;6.00;;
10059;SDS011;5069;49.306;8.636;2023-01-08T05:42:38;10.97;;;6.20;;
10059;SDS011;5069;49.306;8.636;2023-01-08T05:45:40;7.57;;;6.37;;
10059;SDS011;5069;49.306;8.636;2023-01-08T05:48:41;8.80;;;6.43;;
10059;SDS011;5069;49.306;8.636;2023-01-08T05:51:43;8.13;;;7.17;;
10059;SDS011;5069;49.306;8.636;2023-01-08T05:54:44;8.17;;;6.30;;
10059;SDS011;5069;49.306;8.636;2023-01-08T05:57:46;7.70;;;6.77;;
10059;SDS011;5069;49.306;8.636;2023-01-08T06:00:47;8.30;;;6.60;;
10059;SDS011;5069;49.306;8.636;2023-01-08T06:03:48;7.63;;;6.40;;
10059;SDS011;5069;49.306;8.636;2023-01-08T06:06:50;9.47;;;6.90;;
10059;SDS011;5069;49.306;8.636;2023-01-08T06:09:51;9.47;;;7.40;;
10059;SDS011;5069;49.306;8.636;2023-01-08T06:12:53;12.53;;;7.50;;
10059;SDS011;5069;49.306;8.636;2023-01-08T06:15:57;8.77;;;7.43;;
10059;SDS011;5069;49.306;8.636;2023-01-08T06:19:00;9.43;;;7.40;;
10059;SDS011;5069;49.306;8.636;2023-01-08T06:22:02;8.07;;;6.63;;
10059;SDS011;5069;49.306;8.636;2023-01-08T06:25:04;7.37;;;5.73;;
10059;SDS011;5069;49.306;8.636;2023-01-08T06:28:06;7.03;;;5.40;;
10059;SDS011;5069;49.306;8.636;2023-01-08T06:31:08;7.73;;;5.57;;
10059;SDS011;5069;49.306;8.636;2023-01-08T06:34:10;7.63;;;6.53;;
10059;SDS011;5069;49.306;8.636;2023-01-08T06:37:12;6.77;;;5.83;;
10059;SDS011;5069;49.306;8.636;2023-01-08T06:40:14;8.07;;;5.97;;
10059;SDS011;5069;49.306;8.636;2023-01-08T06:43:15;6.70;;;6.00;;
10059;SDS011;5069;49.306;8.636;2023-01-08T06:46:17;6.57;;;5.70;;
10059;SDS011;5069;49.306;8.636;2023-01-08T06:49:19;7.37;;;5.73;;
10059;SDS011;5069;49.306;8.636;2023-01-08T06:52:22;7.13;;;5.50;;
10059;SDS011;5069;49.306;8.636;2023-01-08T06:55:23;6.97;;;5.37;;
10059;SDS011;5069;49.306;8.636;2023-01-08T06:58:26;6.23;;;5.33;;
10059;SDS011;5069;49.306;8.636;2023-01-08T07:01:28;7.00;;;5.17;;
10059;SDS011;5069;49.306;8.636;2023-01-08T07:04:29;6.47;;;5.70;;
10059;SDS011;5069;49.306;8.636;2023-01-08T07:07:31;6.20;;;5.43;;
10059;SDS011;5069;49.306;8.636;2023-01-08T07:10:33;5.60;;;5.10;;
10059;SDS011;5069;49.306;8.636;2023-01-08T07:13:34;5.53;;;5.03;;
10059;SDS011;5069;49.306;8.636;2023-01-08T07:16:36;7.23;;;4.87;;
10059;SDS011;5069;49.306;8.636;2023-01-08T07:19:37;6.53;;;5.03;;
10059;SDS011;5069;49.306;8.636;2023-01-08T07:22:39;12.80;;;7.20;;
10059;SDS011;5069;49.306;8.636;2023-01-08T07:25:40;11.53;;;7.43;;
10059;SDS011;5069;49.306;8.636;2023-01-08T07:28:42;10.83;;;7.30;;
10059;SDS011;5069;49.306;8.636;2023-01-08T07:31:44;8.03;;;6.13;;
10059;SDS011;5069;49.306;8.636;2023-01-08T07:34:45;7.63;;;5.87;;
10059;SDS011;5069;49.306;8.636;2023-01-08T07:37:46;7.27;;;5.50;;
10059;SDS011;5069;49.306;8.636;2023-01-08T07:40:48;5.70;;;5.07;;
10059;SDS011;5069;49.306;8.636;2023-01-08T07:43:49;5.43;;;4.33;;
10059;SDS011;5069;49.306;8.636;2023-01-08T07:46:51;6.30;;;4.10;;
10059;SDS011;5069;49.306;8.636;2023-01-08T07:49:52;6.20;;;4.40;;
10059;SDS011;5069;49.306;8.636;2023-01-08T07:53:00;4.90;;;4.40;;
10059;SDS011;5069;49.306;8.636;2023-01-08T07:56:03;6.00;;;4.20;;
10059;SDS011;5069;49.306;8.636;2023-01-08T07:59:06;5.63;;;4.27;;
10059;SDS011;5069;49.306;8.636;2023-01-08T08:02:09;5.27;;;4.60;;
10059;SDS011;5069;49.306;8.636;2023-01-08T08:05:11;6.27;;;4.40;;
10059;SDS011;5069;49.306;8.636;2023-01-08T08:08:13;6.93;;;5.60;;
10059;SDS011;5069;49.306;8.636;2023-01-08T08:11:14;9.67;;;6.60;;
10059;SDS011;5069;49.306;8.636;2023-01-08T08:14:16;6.77;;;4.83;;
10059;SDS011;5069;49.306;8.636;2023-01-08T08:17:17;4.77;;;4.27;;
10059;SDS011;5069;49.306;8.636;2023-01-08T08:20:19;5.43;;;4.63;;
10059;SDS011;5069;49.306;8.636;2023-01-08T08:23:20;4.90;;;4.40;;
10059;SDS011;5069;49.306;8.636;2023-01-08T08:26:21;4.87;;;3.90;;
10059;SDS011;5069;49.306;8.636;2023-01-08T08:29:24;4.90;;;3.93;;
10059;SDS011;5069;49.306;8.636;2023-01-08T08:32:25;5.33;;;4.10;;
10059;SDS011;5069;49.306;8.636;2023-01-08T08:35:27;4.00;;;3.57;;
10059;SDS011;5069;49.306;8.636;2023-01-08T08:38:30;6.23;;;4.07;;
10059;SDS011;5069;49.306;8.636;2023-01-08T08:41:31;4.40;;;4.00;;
10059;SDS011;5069;49.306;8.636;2023-01-08T08:44:33;4.90;;;4.10;;
10059;SDS011;5069;49.306;8.636;2023-01-08T08:47:34;5.47;;;3.47;;
10059;SDS011;5069;49.306;8.636;2023-01-08T08:50:36;5.73;;;3.33;;
10059;SDS011;5069;49.306;8.636;2023-01-08T08:53:38;4.97;;;2.87;;
10059;SDS011;5069;49.306;8.636;2023-01-08T08:56:40;3.10;;;2.30;;
10059;SDS011;5069;49.306;8.636;2023-01-08T08:59:41;3.40;;;2.80;;
10059;SDS011;5069;49.306;8.636;2023-01-08T09:02:43;3.73;;;2.40;;
10059;SDS011;5069;49.306;8.636;2023-01-08T09:05:45;3.40;;;2.60;;
10059;SDS011;5069;49.306;8.636;2023-01-08T09:08:46;3.53;;;2.53;;
10059;SDS011;5069;49.306;8.636;2023-01-08T09:11:48;5.50;;;3.23;;
10059;SDS011;5069;49.306;8.636;2023-01-08T09:14:50;4.97;;;2.97;;
10059;SDS011;5069;49.306;8.636;2023-01-08T09:17:55;4.70;;;3.10;;
10059;SDS011;5069;49.306;8.636;2023-01-08T09:20:57;5.43;;;4.03;;
10059;SDS011;5069;49.306;8.636;2023-01-08T09:23:58;4.03;;;3.40;;
10059;SDS011;5069;49.306;8.636;2023-01-08T09:27:00;5.63;;;3.90;;
10059;SDS011;5069;49.306;8.636;2023-01-08T09:30:01;5.50;;;3.73;;
10059;SDS011;5069;49.306;8.636;2023-01-08T09:33:04;5.80;;;3.43;;
10059;SDS011;5069;49.306;8.636;2023-01-08T09:36:10;5.60;;;3.60;;
10059;SDS011;5069;49.306;8.636;2023-01-08T09:39:11;3.50;;;3.20;;
10059;SDS011;5069;49.306;8.636;2023-01-08T09:42:13;4.07;;;3.43;;
10059;SDS011;5069;49.306;8.636;2023-01-08T09:45:21;3.47;;;3.00;;
10059;SDS011;5069;49.306;8.636;2023-01-08T09:48:36;3.97;;;2.93;;
10059;SDS011;5069;49.306;8.636;2023-01-08T09:51:39;4.10;;;3.10;;
10059;SDS011;5069;49.306;8.636;2023-01-08T09:54:41;5.97;;;3.93;;
10059;SDS011;5069;49.306;8.636;2023-01-08T09:57:43;5.00;;;3.20;;
10059;SDS011;5069;49.306;8.636;2023-01-08T10:00:45;3.20;;;2.90;;
10059;SDS011;5069;49.306;8.636;2023-01-08T10:07:13;4.93;;;4.10;;
10059;SDS011;5069;49.306;8.636;2023-01-08T10:10:22;4.43;;;3.50;;
10059;SDS011;5069;49.306;8.636;2023-01-08T10:13:27;4.57;;;3.90;;
10059;SDS011;5069;49.306;8.636;2023-01-08T10:16:30;3.80;;;3.40;;
10059;SDS011;5069;49.306;8.636;2023-01-08T10:19:37;4.90;;;3.73;;
10059;SDS011;5069;49.306;8.636;2023-01-08T10:22:38;5.73;;;4.10;;
10059;SDS011;5069;49.306;8.636;2023-01-08T10:25:47;5.13;;;3.77;;
10059;SDS011;5069;49.306;8.636;2023-01-08T10:28:51;6.03;;;4.07;;
10059;SDS011;5069;49.306;8.636;2023-01-08T10:31:55;5.70;;;3.27;;
10059;SDS011;5069;49.306;8.636;2023-01-08T10:35:02;4.67;;;3.07;;
10059;SDS011;5069;49.306;8.636;2023-01-08T10:38:05;3.67;;;3.07;;
10059;SDS011;5069;49.306;8.636;2023-01-08T10:41:11;3.20;;;2.80;;
10059;SDS011;5069;49.306;8.636;2023-01-08T10:44:15;3.90;;;2.60;;
10059;SDS011;5069;49.306;8.636;2023-01-08T10:47:18;3.10;;;2.47;;
10059;SDS011;5069;49.306;8.636;2023-01-08T10:50:22;3.57;;;2.27;;
10059;SDS011;5069;49.306;8.636;2023-01-08T10:53:27;3.63;;;2.50;;
10059;SDS011;5069;49.306;8.636;2023-01-08T10:56:30;4.40;;;2.57;;
10059;SDS011;5069;49.306;8.636;2023-01-08T10:59:41;2.30;;;2.03;;
10059;SDS011;5069;49.306;8.636;2023-01-08T11:02:42;3.23;;;1.90;;
10059;SDS011;5069;49.306;8.636;2023-01-08T11:05:50;4.57;;;2.03;;
10059;SDS011;5069;49.306;8.636;2023-01-08T11:08:53;2.73;;;2.10;;
10059;SDS011;5069;49.306;8.636;2023-01-08T11:11:57;2.30;;;2.00;;
10059;SDS011;5069;49.306;8.636;2023-01-08T11:14:59;2.10;;;1.90;;
10059;SDS011;5069;49.306;8.636;2023-01-08T11:18:05;3.47;;;2.00;;
10059;SDS011;5069;49.306;8.636;2023-01-08T11:21:24;2.73;;;1.70;;
10059;SDS011;5069;49.306;8.636;2023-01-08T11:24:37;2.87;;;1.97;;
10059;SDS011;5069;49.306;8.636;2023-01-08T11:27:40;2.30;;;2.00;;
10059;SDS011;5069;49.306;8.636;2023-01-08T11:30:46;3.47;;;2.10;;
10059;SDS011;5069;49.306;8.636;2023-01-08T11:33:57;2.17;;;1.83;;
10059;SDS011;5069;49.306;8.636;2023-01-08T11:37:09;1.70;;;1.60;;
10059;SDS011;5069;49.306;8.636;2023-01-08T11:44:03;3.73;;;2.50;;
10059;SDS011;5069;49.306;8.636;2023-01-08T11:50:28;2.17;;;1.97;;
10059;SDS011;5069;49.306;8.636;2023-01-08T11:53:46;2.53;;;1.73;;
10059;SDS011;5069;49.306;8.636;2023-01-08T11:57:03;1.40;;;1.30;;
10059;SDS011;5069;49.306;8.636;2023-01-08T12:04:02;2.57;;;1.50;;
10059;SDS011;5069;49.306;8.636;2023-01-08T12:07:26;1.33;;;1.23;;
10059;SDS011;5069;49.306;8.636;2023-01-08T12:14:05;2.07;;;1.60;;
10059;SDS011;5069;49.306;8.636;2023-01-08T12:17:28;2.70;;;1.57;;
10059;SDS011;5069;49.306;8.636;2023-01-08T12:27:33;2.27;;;1.70;;
10059;SDS011;5069;49.306;8.636;2023-01-08T12:31:06;1.93;;;1.30;;
10059;SDS011;5069;49.306;8.636;2023-01-08T12:37:47;3.07;;;1.80;;
10059;SDS011;5069;49.306;8.636;2023-01-08T12:40:55;3.90;;;2.80;;
10059;SDS011;5069;49.306;8.636;2023-01-08T12:47:12;1.53;;;1.43;;
10059;SDS011;5069;49.306;8.636;2023-01-08T12:50:23;1.33;;;1.23;;
10059;SDS011;5069;49.306;8.636;2023-01-08T13:00:30;2.50;;;1.50;;
10059;SDS011;5069;49.306;8.636;2023-01-08T13:03:38;2.23;;;1.67;;
10059;SDS011;5069;49.306;8.636;2023-01-08T13:13:56;3.23;;;2.67;;
10059;SDS011;5069;49.306;8.636;2023-01-08T13:17:04;3.77;;;2.90;;
10059;SDS011;5069;49.306;8.636;2023-01-08T13:20:19;2.40;;;2.07;;
10059;SDS011;5069;49.306;8.636;2023-01-08T13:23:25;3.60;;;2.70;;
10059;SDS011;5069;49.306;8.636;2023-01-08T13:26:31;2.73;;;2.43;;
10059;SDS011;5069;49.306;8.636;2023-01-08T13:29:36;1.80;;;1.60;;
10059;SDS011;5069;49.306;8.636;2023-01-08T13:32:41;2.93;;;1.90;;
10059;SDS011;5069;49.306;8.636;2023-01-08T13:35:47;4.00;;;2.77;;
10059;SDS011;5069;49.306;8.636;2023-01-08T13:39:05;1.60;;;1.50;;
10059;SDS011;5069;49.306;8.636;2023-01-08T13:42:23;4.53;;;2.60;;
10059;SDS011;5069;49.306;8.636;2023-01-08T13:45:29;2.57;;;2.20;;
10059;SDS011;5069;49.306;8.636;2023-01-08T13:48:35;3.23;;;2.90;;
10059;SDS011;5069;49.306;8.636;2023-01-08T13:51:42;3.13;;;2.67;;
10059;SDS011;5069;49.306;8.636;2023-01-08T13:54:45;3.17;;;2.47;;
10059;SDS011;5069;49.306;8.636;2023-01-08T13:57:50;3.53;;;3.20;;
10059;SDS011;5069;49.306;8.636;2023-01-08T14:00:54;3.60;;;3.30;;
10059;SDS011;5069;49.306;8.636;2023-01-08T14:03:56;2.03;;;1.80;;
10059;SDS011;5069;49.306;8.636;2023-01-08T14:07:14;1.67;;;1.20;;
10059;SDS011;5069;49.306;8.636;2023-01-08T14:10:16;1.63;;;1.40;;
10059;SDS011;5069;49.306;8.636;2023-01-08T14:13:21;1.30;;;1.20;;
10059;SDS011;5069;49.306;8.636;2023-01-08T14:16:26;2.20;;;1.50;;
10059;SDS011;5069;49.306;8.636;2023-01-08T14:19:28;1.50;;;1.20;;
10059;SDS011;5069;49.306;8.636;2023-01-08T14:22:30;1.20;;;0.77;;
10059;SDS011;5069;49.306;8.636;2023-01-08T14:25:33;0.83;;;0.80;;
10059;SDS011;5069;49.306;8.636;2023-01-08T14:28:35;2.03;;;0.90;;
10059;SDS011;5069;49.306;8.636;2023-01-08T14:31:36;0.70;;;0.70;;
10059;SDS011;5069;49.306;8.636;2023-01-08T14:34:38;0.97;;;0.80;;
10059;SDS011;5069;49.306;8.636;2023-01-08T14:37:41;0.70;;;0.70;;
10059;SDS011;5069;49.306;8.636;2023-01-08T14:40:44;0.80;;;0.70;;
10059;SDS011;5069;49.306;8.636;2023-01-08T14:43:51;0.50;;;0.50;;
10059;SDS011;5069;49.306;8.636;2023-01-08T14:46:52;0.97;;;0.70;;
10059;SDS011;5069;49.306;8.636;2023-01-08T14:49:55;0.60;;;0.60;;
10059;SDS011;5069;49.306;8.636;2023-01-08T14:52:58;1.13;;;0.63;;
10059;SDS011;5069;49.306;8.636;2023-01-08T14:56:06;0.70;;;0.70;;
10059;SDS011;5069;49.306;8.636;2023-01-08T14:59:14;1.33;;;0.70;;
10059;SDS011;5069;49.306;8.636;2023-01-08T15:02:21;0.80;;;0.70;;
10059;SDS011;5069;49.306;8.636;2023-01-08T15:05:29;0.70;;;0.70;;
10059;SDS011;5069;49.306;8.636;2023-01-08T15:08:37;2.50;;;0.70;;
10059;SDS011;5069;49.306;8.636;2023-01-08T15:11:47;0.80;;;0.70;;
10059;SDS011;5069;49.306;8.636;2023-01-08T15:14:53;0.90;;;0.60;;
10059;SDS011;5069;49.306;8.636;2023-01-08T15:17:57;0.80;;;0.80;;
10059;SDS011;5069;49.306;8.636;2023-01-08T15:20:59;0.97;;;0.97;;
10059;SDS011;5069;49.306;8.636;2023-01-08T15:24:01;0.70;;;0.70;;
10059;SDS011;5069;49.306;8.636;2023-01-08T15:27:04;2.33;;;0.90;;
10059;SDS011;5069;49.306;8.636;2023-01-08T15:30:25;1.63;;;1.40;;
10059;SDS011;5069;49.306;8.636;2023-01-08T15:33:34;1.37;;;1.10;;
10059;SDS011;5069;49.306;8.636;2023-01-08T15:36:36;1.53;;;0.80;;
10059;SDS011;5069;49.306;8.636;2023-01-08T15:39:37;0.73;;;0.73;;
10059;SDS011;5069;49.306;8.636;2023-01-08T15:42:39;0.60;;;0.60;;
10059;SDS011;5069;49.306;8.636;2023-01-08T15:45:59;1.50;;;1.10;;
10059;SDS011;5069;49.306;8.636;2023-01-08T15:49:00;1.60;;;1.43;;
10059;SDS011;5069;49.306;8.636;2023-01-08T15:52:02;1.30;;;1.20;;
10059;SDS011;5069;49.306;8.636;2023-01-08T15:55:04;0.87;;;0.80;;
10059;SDS011;5069;49.306;8.636;2023-01-08T15:58:07;0.70;;;0.70;;
10059;SDS011;5069;49.306;8.636;2023-01-08T16:01:10;0.83;;;0.73;;
10059;SDS011;5069;49.306;8.636;2023-01-08T16:04:11;4.87;;;2.40;;
10059;SDS011;5069;49.306;8.636;2023-01-08T16:07:13;5.13;;;4.10;;
10059;SDS011;5069;49.306;8.636;2023-01-08T16:10:15;3.23;;;2.47;;
10059;SDS011;5069;49.306;8.636;2023-01-08T16:13:17;1.80;;;1.60;;
10059;SDS011;5069;49.306;8.636;2023-01-08T16:16:19;4.70;;;3.53;;
10059;SDS011;5069;49.306;8.636;2023-01-08T16:19:21;12.77;;;8.60;;
10059;SDS011;5069;49.306;8.636;2023-01-08T16:22:25;6.83;;;5.30;;
10059;SDS011;5069;49.306;8.636;2023-01-08T16:25:26;4.53;;;3.53;;
10059;SDS011;5069;49.306;8.636;2023-01-08T16:28:28;5.00;;;3.90;;
10059;SDS011;5069;49.306;8.636;2023-01-08T16:31:29;5.17;;;3.87;;
10059;SDS011;5069;49.306;8.636;2023-01-08T16:34:31;3.50;;;3.20;;
10059;SDS011;5069;49.306;8.636;2023-01-08T16:37:32;3.93;;;2.50;;
10059;SDS011;5069;49.306;8.636;2023-01-08T16:40:34;3.47;;;2.83;;
10059;SDS011;5069;49.306;8.636;2023-01-08T16:43:39;2.93;;;2.63;;
10059;SDS011;5069;49.306;8.636;2023-01-08T16:46:41;3.40;;;3.10;;
10059;SDS011;5069;49.306;8.636;2023-01-08T16:49:43;3.97;;;3.17;;
10059;SDS011;5069;49.306;8.636;2023-01-08T16:52:44;3.33;;;3.03;;
10059;SDS011;5069;49.306;8.636;2023-01-08T16:55:46;5.30;;;4.80;;
10059;SDS011;5069;49.306;8.636;2023-01-08T16:58:50;4.33;;;3.93;;
10059;SDS011;5069;49.306;8.636;2023-01-08T17:01:52;4.23;;;3.20;;
10059;SDS011;5069;49.306;8.636;2023-01-08T17:04:54;5.30;;;3.97;;
10059;SDS011;5069;49.306;8.636;2023-01-08T17:07:56;5.67;;;4.87;;
10059;SDS011;5069;49.306;8.636;2023-01-08T17:10:58;8.20;;;5.90;;
10059;SDS011;5069;49.306;8.636;2023-01-08T17:14:00;7.20;;;5.23;;
10059;SDS011;5069;49.306;8.636;2023-01-08T17:17:01;7.50;;;5.30;;
10059;SDS011;5069;49.306;8.636;2023-01-08T17:20:03;6.30;;;4.80;;
10059;SDS011;5069;49.306;8.636;2023-01-08T17:23:04;11.43;;;6.93;;
10059;SDS011;5069;49.306;8.636;2023-01-08T17:26:10;10.37;;;7.70;;
10059;SDS011;5069;49.306;8.636;2023-01-08T17:29:14;7.47;;;6.67;;
10059;SDS011;5069;49.306;8.636;2023-01-08T17:32:15;9.97;;;7.70;;
10059;SDS011;5069;49.306;8.636;2023-01-08T17:35:17;13.43;;;9.00;;
10059;SDS011;5069;49.306;8.636;2023-01-08T17:38:18;10.00;;;8.47;;
10059;SDS011;5069;49.306;8.636;2023-01-08T17:41:20;9.20;;;8.03;;
10059;SDS011;5069;49.306;8.636;2023-01-08T17:44:41;10.07;;;4.83;;
10059;SDS011;5069;49.306;8.636;2023-01-08T17:47:43;6.33;;;5.30;;
10059;SDS011;5069;49.306;8.636;2023-01-08T17:50:44;4.50;;;3.70;;
10059;SDS011;5069;49.306;8.636;2023-01-08T17:53:46;6.10;;;4.93;;
10059;SDS011;5069;49.306;8.636;2023-01-08T17:56:47;3.97;;;3.33;;
10059;SDS011;5069;49.306;8.636;2023-01-08T17:59:49;4.10;;;3.23;;
10059;SDS011;5069;49.306;8.636;2023-01-08T18:02:50;7.80;;;4.10;;
10059;SDS011;5069;49.306;8.636;2023-01-08T18:05:51;7.23;;;4.13;;
10059;SDS011;5069;49.306;8.636;2023-01-08T18:08:53;4.60;;;3.57;;
10059;SDS011;5069;49.306;8.636;2023-01-08T18:11:55;5.90;;;4.30;;
10059;SDS011;5069;49.306;8.636;2023-01-08T18:14:56;3.13;;;2.73;;
10059;SDS011;5069;49.306;8.636;2023-01-08T18:17:58;3.23;;;2.40;;
10059;SDS011;5069;49.306;8.636;2023-01-08T18:21:01;4.73;;;1.90;;
10059;SDS011;5069;49.306;8.636;2023-01-08T18:24:02;2.70;;;2.20;;
10059;SDS011;5069;49.306;8.636;2023-01-08T18:27:04;2.60;;;2.37;;
10059;SDS011;5069;49.306;8.636;2023-01-08T18:30:06;4.90;;;2.90;;
10059;SDS011;5069;49.306;8.636;2023-01-08T18:33:08;5.23;;;3.47;;
10059;SDS011;5069;49.306;8.636;2023-01-08T18:36:11;3.30;;;2.20;;
10059;SDS011;5069;49.306;8.636;2023-01-08T18:39:12;2.50;;;2.20;;
10059;SDS011;5069;49.306;8.636;2023-01-08T18:42:14;2.70;;;2.23;;
10059;SDS011;5069;49.306;8.636;2023-01-08T18:45:28;3.00;;;2.40;;
10059;SDS011;5069;49.306;8.636;2023-01-08T18:48:35;2.47;;;2.03;;
10059;SDS011;5069;49.306;8.636;2023-01-08T18:51:36;3.07;;;2.73;;
10059;SDS011;5069;49.306;8.636;2023-01-08T18:54:38;4.93;;;3.50;;
10059;SDS011;5069;49.306;8.636;2023-01-08T18:57:40;4.47;;;3.63;;
10059;SDS011;5069;49.306;8.636;2023-01-08T19:00:42;3.70;;;3.07;;
10059;SDS011;5069;49.306;8.636;2023-01-08T19:03:43;6.03;;;4.90;;
10059;SDS011;5069;49.306;8.636;2023-01-08T19:06:45;5.43;;;4.53;;
10059;SDS011;5069;49.306;8.636;2023-01-08T19:09:46;5.07;;;4.20;;
10059;SDS011;5069;49.306;8.636;2023-01-08T19:12:48;5.60;;;5.07;;
10059;SDS011;5069;49.306;8.636;2023-01-08T19:15:50;6.97;;;4.53;;
10059;SDS011;5069;49.306;8.636;2023-01-08T19:18:52;7.40;;;5.30;;
10059;SDS011;5069;49.306;8.636;2023-01-08T19:21:54;6.60;;;4.83;;
10059;SDS011;5069;49.306;8.636;2023-01-08T19:24:55;8.43;;;5.23;;
10059;SDS011;5069;49.306;8.636;2023-01-08T19:27:56;5.23;;;4.30;;
10059;SDS011;5069;49.306;8.636;2023-01-08T19:30:58;7.23;;;4.90;;
10059;SDS011;5069;49.306;8.636;2023-01-08T19:34:00;7.67;;;6.27;;
10059;SDS011;5069;49.306;8.636;2023-01-08T19:37:02;8.03;;;6.63;;
10059;SDS011;5069;49.306;8.636;2023-01-08T19:40:04;6.87;;;5.37;;
10059;SDS011;5069;49.306;8.636;2023-01-08T19:43:06;6.10;;;5.17;;
10059;SDS011;5069;49.306;8.636;2023-01-08T19:46:27;7.60;;;5.80;;